THA104 VTSP-VTSM
Flight info
| Callsign | THA104 |
|---|---|
| Flight time | 0h 34m |
| Altitude | 27000 |
| Route | EMRIT1B EMRIT Y99 AKVUG Y93 DORNA |
| Aircraft | A320/M-SDE3FGHIRWY/LB1 |
Departure
| Time | 2026-05-07 09:55 |
|---|---|
| Airport | Phuket International Airport (VTSP) |
Arrival
| Time | 2026-05-07 10:30 |
|---|---|
| Airport | Samui International Airport (VTSM) |
| Time | Latitude | Longitude | Altitude | Speed | Heading |
|---|---|---|---|---|---|
| 2026-05-07 09:34 | 8.10651 | 98.30486 | 27 ft | 0 kts | 105° |
| 2026-05-07 09:45 | 8.10654 | 98.30475 | 27 ft | 3 kts | 103° |
| 2026-05-07 09:45 | 8.10658 | 98.30455 | 27 ft | 3 kts | 93° |
| 2026-05-07 09:46 | 8.10658 | 98.30435 | 27 ft | 3 kts | 78° |
| 2026-05-07 09:46 | 8.10652 | 98.30418 | 27 ft | 2 kts | 61° |
| 2026-05-07 09:46 | 8.10651 | 98.30415 | 27 ft | 0 kts | 59° |
| 2026-05-07 09:47 | 8.10644 | 98.30405 | 27 ft | 2 kts | 53° |
| 2026-05-07 09:47 | 8.10635 | 98.30392 | 27 ft | 2 kts | 53° |
| 2026-05-07 09:47 | 8.10627 | 98.30382 | 27 ft | 0 kts | 12° |
| 2026-05-07 09:49 | 8.10629 | 98.30383 | 27 ft | 2 kts | 12° |
| 2026-05-07 09:49 | 8.10668 | 98.30392 | 27 ft | 9 kts | 15° |
| 2026-05-07 09:49 | 8.10748 | 98.30414 | 27 ft | 14 kts | 15° |
| 2026-05-07 09:49 | 8.10854 | 98.30442 | 27 ft | 18 kts | 14° |
| 2026-05-07 09:50 | 8.10983 | 98.30476 | 27 ft | 17 kts | 14° |
| 2026-05-07 09:50 | 8.11052 | 98.30556 | 28 ft | 18 kts | 84° |
| 2026-05-07 09:50 | 8.11066 | 98.30696 | 28 ft | 22 kts | 84° |
| 2026-05-07 09:50 | 8.11082 | 98.30859 | 29 ft | 25 kts | 84° |
| 2026-05-07 09:51 | 8.11122 | 98.31009 | 30 ft | 23 kts | 79° |
| 2026-05-07 09:51 | 8.11139 | 98.31178 | 31 ft | 26 kts | 84° |
| 2026-05-07 09:51 | 8.11156 | 98.31362 | 34 ft | 28 kts | 84° |
| 2026-05-07 09:51 | 8.11174 | 98.31559 | 40 ft | 28 kts | 84° |
| 2026-05-07 09:52 | 8.11193 | 98.31754 | 49 ft | 28 kts | 84° |
| 2026-05-07 09:52 | 8.11211 | 98.31946 | 57 ft | 27 kts | 84° |
| 2026-05-07 09:52 | 8.11229 | 98.32137 | 65 ft | 27 kts | 84° |
| 2026-05-07 09:52 | 8.11246 | 98.32322 | 73 ft | 27 kts | 84° |
| 2026-05-07 09:53 | 8.11264 | 98.32519 | 84 ft | 29 kts | 84° |
| 2026-05-07 09:53 | 8.11284 | 98.32724 | 84 ft | 30 kts | 84° |
| 2026-05-07 09:53 | 8.11302 | 98.32917 | 90 ft | 17 kts | 85° |
| 2026-05-07 09:53 | 8.11348 | 98.33014 | 92 ft | 12 kts | 26° |
| 2026-05-07 09:54 | 8.11352 | 98.33015 | 94 ft | 0 kts | 20° |
| 2026-05-07 09:54 | 8.11358 | 98.33017 | 94 ft | 4 kts | 14° |
| 2026-05-07 09:54 | 8.11410 | 98.33016 | 93 ft | 11 kts | 356° |
| 2026-05-07 09:54 | 8.11444 | 98.32978 | 91 ft | 6 kts | 249° |
| 2026-05-07 09:55 | 8.11442 | 98.32953 | 90 ft | 19 kts | 265° |
| 2026-05-07 09:55 | 8.11393 | 98.32426 | 72 ft | 127 kts | 264° |
| 2026-05-07 09:55 | 8.11297 | 98.31313 | 450 ft | 172 kts | 266° |
| 2026-05-07 09:55 | 8.11169 | 98.30054 | 1302 ft | 191 kts | 263° |
| 2026-05-07 09:56 | 8.11022 | 98.28640 | 1808 ft | 215 kts | 263° |
| 2026-05-07 09:56 | 8.10864 | 98.27078 | 2334 ft | 239 kts | 263° |
| 2026-05-07 09:56 | 8.10547 | 98.25352 | 2901 ft | 262 kts | 245° |
| 2026-05-07 09:56 | 8.09340 | 98.23957 | 3690 ft | 271 kts | 209° |
| 2026-05-07 09:57 | 8.07527 | 98.23464 | 4662 ft | 274 kts | 180° |
| 2026-05-07 09:57 | 8.05618 | 98.23588 | 5675 ft | 276 kts | 171° |
| 2026-05-07 09:57 | 8.03706 | 98.23864 | 6655 ft | 279 kts | 170° |
| 2026-05-07 09:57 | 8.01771 | 98.24151 | 7586 ft | 283 kts | 170° |
| 2026-05-07 09:58 | 7.99807 | 98.24435 | 8493 ft | 288 kts | 172° |
| 2026-05-07 09:58 | 7.97786 | 98.24537 | 9421 ft | 293 kts | 178° |
| 2026-05-07 09:58 | 7.95736 | 98.24487 | 10197 ft | 301 kts | 180° |
| 2026-05-07 09:58 | 7.93582 | 98.24703 | 10497 ft | 323 kts | 163° |
| 2026-05-07 09:59 | 7.91502 | 98.25710 | 10726 ft | 343 kts | 142° |
| 2026-05-07 09:59 | 7.89844 | 98.27483 | 11199 ft | 353 kts | 122° |
| 2026-05-07 09:59 | 7.88906 | 98.29772 | 11865 ft | 357 kts | 101° |
| 2026-05-07 09:59 | 7.88865 | 98.32275 | 12571 ft | 362 kts | 80° |
| 2026-05-07 10:00 | 7.89777 | 98.34656 | 13287 ft | 369 kts | 58° |
| 2026-05-07 10:00 | 7.91485 | 98.36559 | 13914 ft | 375 kts | 43° |
| 2026-05-07 10:00 | 7.93458 | 98.38296 | 14542 ft | 378 kts | 42° |
| 2026-05-07 10:00 | 7.95460 | 98.40033 | 15151 ft | 382 kts | 42° |
| 2026-05-07 10:01 | 7.97486 | 98.41784 | 15755 ft | 385 kts | 42° |
| 2026-05-07 10:01 | 7.99524 | 98.43549 | 16354 ft | 388 kts | 42° |
| 2026-05-07 10:01 | 8.01579 | 98.45335 | 16942 ft | 391 kts | 42° |
| 2026-05-07 10:01 | 8.03649 | 98.47139 | 17546 ft | 395 kts | 42° |
| 2026-05-07 10:02 | 8.05731 | 98.48960 | 18122 ft | 398 kts | 42° |
| 2026-05-07 10:02 | 8.07833 | 98.50798 | 18621 ft | 401 kts | 42° |
| 2026-05-07 10:02 | 8.09948 | 98.52646 | 19123 ft | 404 kts | 42° |
| 2026-05-07 10:02 | 8.12095 | 98.54521 | 19669 ft | 408 kts | 42° |
| 2026-05-07 10:03 | 8.14247 | 98.56400 | 20196 ft | 411 kts | 42° |
| 2026-05-07 10:03 | 8.16419 | 98.58298 | 20693 ft | 414 kts | 42° |
| 2026-05-07 10:03 | 8.18608 | 98.60213 | 21182 ft | 417 kts | 42° |
| 2026-05-07 10:03 | 8.20807 | 98.62141 | 21655 ft | 420 kts | 42° |
| 2026-05-07 10:04 | 8.22992 | 98.64056 | 22126 ft | 423 kts | 42° |
| 2026-05-07 10:04 | 8.25222 | 98.66008 | 22636 ft | 426 kts | 42° |
| 2026-05-07 10:04 | 8.27478 | 98.67976 | 23048 ft | 430 kts | 42° |
| 2026-05-07 10:04 | 8.29749 | 98.69960 | 23449 ft | 433 kts | 42° |
| 2026-05-07 10:05 | 8.32032 | 98.71957 | 23796 ft | 436 kts | 42° |
| 2026-05-07 10:05 | 8.34326 | 98.73969 | 24148 ft | 438 kts | 42° |
| 2026-05-07 10:05 | 8.36638 | 98.75996 | 24514 ft | 440 kts | 42° |
| 2026-05-07 10:05 | 8.38959 | 98.78033 | 24871 ft | 443 kts | 42° |
| 2026-05-07 10:06 | 8.41288 | 98.80077 | 25243 ft | 445 kts | 42° |
| 2026-05-07 10:06 | 8.43636 | 98.82134 | 25605 ft | 447 kts | 42° |
| 2026-05-07 10:06 | 8.45990 | 98.84194 | 25950 ft | 449 kts | 42° |
| 2026-05-07 10:06 | 8.48359 | 98.86266 | 26297 ft | 452 kts | 42° |
| 2026-05-07 10:07 | 8.50744 | 98.88351 | 26635 ft | 454 kts | 42° |
| 2026-05-07 10:07 | 8.53137 | 98.90444 | 26787 ft | 456 kts | 42° |
| 2026-05-07 10:07 | 8.55552 | 98.92562 | 26815 ft | 461 kts | 42° |
| 2026-05-07 10:07 | 8.57981 | 98.94693 | 26825 ft | 463 kts | 42° |
| 2026-05-07 10:08 | 8.60418 | 98.96830 | 26824 ft | 464 kts | 42° |
| 2026-05-07 10:08 | 8.62849 | 98.98961 | 26719 ft | 461 kts | 42° |
| 2026-05-07 10:08 | 8.65266 | 99.01079 | 25807 ft | 460 kts | 42° |
| 2026-05-07 10:08 | 8.67666 | 99.03181 | 24845 ft | 463 kts | 42° |
| 2026-05-07 10:09 | 8.70097 | 99.05316 | 24163 ft | 461 kts | 42° |
| 2026-05-07 10:09 | 8.72506 | 99.07433 | 23525 ft | 457 kts | 42° |
| 2026-05-07 10:09 | 8.74896 | 99.09531 | 22779 ft | 453 kts | 42° |
| 2026-05-07 10:09 | 8.77264 | 99.11612 | 22024 ft | 447 kts | 42° |
| 2026-05-07 10:10 | 8.79599 | 99.13666 | 21288 ft | 442 kts | 42° |
| 2026-05-07 10:10 | 8.81914 | 99.15699 | 20567 ft | 437 kts | 42° |
| 2026-05-07 10:10 | 8.84174 | 99.17683 | 19869 ft | 432 kts | 42° |
| 2026-05-07 10:10 | 8.86429 | 99.19662 | 19179 ft | 428 kts | 42° |
| 2026-05-07 10:11 | 8.88665 | 99.21624 | 18513 ft | 423 kts | 42° |
| 2026-05-07 10:11 | 8.90883 | 99.23569 | 17800 ft | 419 kts | 42° |
| 2026-05-07 10:11 | 8.93072 | 99.25495 | 17049 ft | 415 kts | 43° |
| 2026-05-07 10:11 | 8.95240 | 99.27404 | 16309 ft | 411 kts | 43° |
| 2026-05-07 10:12 | 8.97390 | 99.29300 | 15585 ft | 408 kts | 43° |
| 2026-05-07 10:12 | 8.99523 | 99.31180 | 14888 ft | 404 kts | 43° |
| 2026-05-07 10:12 | 9.01620 | 99.33024 | 14489 ft | 397 kts | 43° |
| 2026-05-07 10:12 | 9.03700 | 99.34855 | 14121 ft | 395 kts | 43° |
| 2026-05-07 10:13 | 9.05765 | 99.36676 | 13769 ft | 393 kts | 44° |
| 2026-05-07 10:13 | 9.07655 | 99.38651 | 13399 ft | 389 kts | 50° |
| 2026-05-07 10:13 | 9.09460 | 99.40688 | 12981 ft | 387 kts | 50° |
| 2026-05-07 10:13 | 9.11251 | 99.42707 | 12558 ft | 384 kts | 50° |
| 2026-05-07 10:14 | 9.13030 | 99.44713 | 12140 ft | 381 kts | 50° |
| 2026-05-07 10:14 | 9.14770 | 99.46676 | 11725 ft | 368 kts | 50° |
| 2026-05-07 10:14 | 9.16455 | 99.48575 | 11319 ft | 357 kts | 50° |
| 2026-05-07 10:14 | 9.18091 | 99.50421 | 10916 ft | 347 kts | 50° |
| 2026-05-07 10:15 | 9.19684 | 99.52222 | 10514 ft | 339 kts | 50° |
| 2026-05-07 10:15 | 9.21241 | 99.53984 | 10127 ft | 333 kts | 50° |
| 2026-05-07 10:15 | 9.22771 | 99.55714 | 9738 ft | 327 kts | 50° |
| 2026-05-07 10:15 | 9.24277 | 99.57414 | 9321 ft | 322 kts | 50° |
| 2026-05-07 10:16 | 9.25742 | 99.59070 | 8903 ft | 318 kts | 50° |
| 2026-05-07 10:16 | 9.27213 | 99.60731 | 8485 ft | 314 kts | 50° |
| 2026-05-07 10:16 | 9.28646 | 99.62352 | 8068 ft | 301 kts | 50° |
| 2026-05-07 10:16 | 9.30010 | 99.63892 | 7663 ft | 287 kts | 50° |
| 2026-05-07 10:17 | 9.31318 | 99.65370 | 7261 ft | 278 kts | 50° |
| 2026-05-07 10:17 | 9.32603 | 99.66826 | 6850 ft | 276 kts | 50° |
| 2026-05-07 10:17 | 9.33876 | 99.68269 | 6461 ft | 274 kts | 50° |
| 2026-05-07 10:17 | 9.35146 | 99.69710 | 6075 ft | 273 kts | 50° |
| 2026-05-07 10:18 | 9.36407 | 99.71138 | 5660 ft | 272 kts | 50° |
| 2026-05-07 10:18 | 9.37665 | 99.72563 | 5251 ft | 271 kts | 50° |
| 2026-05-07 10:18 | 9.38915 | 99.73977 | 5026 ft | 270 kts | 50° |
| 2026-05-07 10:18 | 9.40169 | 99.75395 | 5015 ft | 271 kts | 50° |
| 2026-05-07 10:19 | 9.41520 | 99.76728 | 5016 ft | 273 kts | 39° |
| 2026-05-07 10:19 | 9.43178 | 99.77673 | 5019 ft | 276 kts | 24° |
| 2026-05-07 10:19 | 9.44964 | 99.78359 | 5017 ft | 269 kts | 23° |
| 2026-05-07 10:19 | 9.46695 | 99.79026 | 5019 ft | 266 kts | 23° |
| 2026-05-07 10:20 | 9.48419 | 99.79694 | 5021 ft | 265 kts | 23° |
| 2026-05-07 10:20 | 9.50137 | 99.80364 | 5022 ft | 264 kts | 23° |
| 2026-05-07 10:20 | 9.51851 | 99.81034 | 5022 ft | 264 kts | 23° |
| 2026-05-07 10:20 | 9.53543 | 99.81696 | 5023 ft | 264 kts | 23° |
| 2026-05-07 10:21 | 9.55261 | 99.82367 | 5023 ft | 264 kts | 23° |
| 2026-05-07 10:21 | 9.56976 | 99.83035 | 5024 ft | 264 kts | 23° |
| 2026-05-07 10:21 | 9.58691 | 99.83702 | 5027 ft | 263 kts | 23° |
| 2026-05-07 10:21 | 9.60399 | 99.84366 | 5023 ft | 262 kts | 23° |
| 2026-05-07 10:22 | 9.62102 | 99.85031 | 4823 ft | 261 kts | 23° |
| 2026-05-07 10:22 | 9.63764 | 99.85679 | 4610 ft | 249 kts | 24° |
| 2026-05-07 10:22 | 9.65329 | 99.86287 | 4396 ft | 233 kts | 23° |
| 2026-05-07 10:22 | 9.66758 | 99.86921 | 4163 ft | 217 kts | 34° |
| 2026-05-07 10:23 | 9.67871 | 99.87849 | 4026 ft | 197 kts | 51° |
| 2026-05-07 10:23 | 9.68625 | 99.88949 | 3951 ft | 189 kts | 65° |
| 2026-05-07 10:23 | 9.69076 | 99.90202 | 3639 ft | 191 kts | 79° |
| 2026-05-07 10:23 | 9.69193 | 99.91546 | 3347 ft | 192 kts | 91° |
| 2026-05-07 10:24 | 9.69188 | 99.92898 | 3071 ft | 193 kts | 91° |
| 2026-05-07 10:24 | 9.69188 | 99.94231 | 2977 ft | 183 kts | 91° |
| 2026-05-07 10:24 | 9.69189 | 99.95451 | 2899 ft | 167 kts | 92° |
| 2026-05-07 10:24 | 9.69189 | 99.96599 | 2821 ft | 154 kts | 91° |
| 2026-05-07 10:25 | 9.69190 | 99.97651 | 2752 ft | 148 kts | 92° |
| 2026-05-07 10:25 | 9.69190 | 99.98349 | 2704 ft | 150 kts | 92° |
| 2026-05-07 10:25 | 9.69042 | 99.99752 | 2618 ft | 151 kts | 108° |
| 2026-05-07 10:25 | 9.68607 | 100.00703 | 2549 ft | 152 kts | 123° |
| 2026-05-07 10:26 | 9.67914 | 100.01506 | 2420 ft | 152 kts | 139° |
| 2026-05-07 10:26 | 9.67337 | 100.01936 | 2337 ft | 153 kts | 143° |
| 2026-05-07 10:26 | 9.66190 | 100.02757 | 2186 ft | 152 kts | 143° |
| 2026-05-07 10:26 | 9.65332 | 100.03373 | 2051 ft | 150 kts | 143° |
| 2026-05-07 10:27 | 9.64497 | 100.03973 | 1909 ft | 141 kts | 143° |
| 2026-05-07 10:27 | 9.63968 | 100.04354 | 1775 ft | 135 kts | 143° |
| 2026-05-07 10:27 | 9.62977 | 100.05066 | 1546 ft | 129 kts | 143° |
| 2026-05-07 10:27 | 9.62178 | 100.05470 | 1381 ft | 129 kts | 161° |
| 2026-05-07 10:28 | 9.61287 | 100.05613 | 1212 ft | 130 kts | 173° |
| 2026-05-07 10:28 | 9.60698 | 100.05668 | 1091 ft | 128 kts | 172° |
| 2026-05-07 10:28 | 9.59806 | 100.05756 | 926 ft | 129 kts | 172° |
| 2026-05-07 10:28 | 9.58913 | 100.05843 | 753 ft | 128 kts | 172° |
| 2026-05-07 10:29 | 9.58028 | 100.05929 | 591 ft | 127 kts | 173° |
| 2026-05-07 10:29 | 9.57159 | 100.06012 | 407 ft | 125 kts | 172° |
| 2026-05-07 10:29 | 9.56282 | 100.06099 | 248 ft | 127 kts | 172° |
| 2026-05-07 10:30 | 9.54645 | 100.06261 | 53 ft | 89 kts | 175° |
| 2026-05-07 10:30 | 9.54245 | 100.06298 | 51 ft | 32 kts | 175° |
| 2026-05-07 10:30 | 9.54021 | 100.06321 | 53 ft | 32 kts | 174° |
| 2026-05-07 10:30 | 9.53889 | 100.06311 | 53 ft | 19 kts | 181° |
| 2026-05-07 10:31 | 9.53845 | 100.06336 | 53 ft | 3 kts | 40° |
| 2026-05-07 10:31 | 9.53909 | 100.06332 | 53 ft | 16 kts | 354° |
| 2026-05-07 10:31 | 9.54056 | 100.06317 | 49 ft | 24 kts | 354° |
| 2026-05-07 10:31 | 9.54235 | 100.06300 | 53 ft | 28 kts | 354° |
| 2026-05-07 10:32 | 9.54446 | 100.06280 | 53 ft | 37 kts | 354° |
| 2026-05-07 10:32 | 9.54807 | 100.06244 | 49 ft | 50 kts | 354° |
| 2026-05-07 10:32 | 9.54986 | 100.06230 | 53 ft | 14 kts | 12° |
| 2026-05-07 10:32 | 9.55016 | 100.06286 | 53 ft | 1 kts | 66° |
| 2026-05-07 10:33 | 9.55027 | 100.06301 | 51 ft | 5 kts | 49° |
| 2026-05-07 10:33 | 9.55043 | 100.06329 | 53 ft | 0 kts | 68° |
| 2026-05-07 10:33 | 9.55042 | 100.06331 | 53 ft | 0 kts | 85° |
| 2026-05-07 10:33 | 9.55043 | 100.06348 | 53 ft | 0 kts | 86° |